createdAt,value
2023-03-16T15:41:19.861Z,28.39
2023-03-16T15:43:24.245Z,28.21
2023-03-16T15:45:28.633Z,27.91
2023-03-16T15:47:33.127Z,28.09
2023-03-16T15:49:49.354Z,27.73
2023-03-16T15:51:53.734Z,27.58
2023-03-16T15:53:58.156Z,27.4
2023-03-16T15:56:02.755Z,27.37
2023-03-16T15:58:07.298Z,27.18
2023-03-16T16:00:12.126Z,27.17
2023-03-16T16:02:16.536Z,27.37
2023-03-16T16:04:21.255Z,27.41
2023-03-16T16:06:25.776Z,27.38
2023-03-16T16:08:30.417Z,27.48
2023-03-16T16:10:34.810Z,27.47
2023-03-16T16:12:39.212Z,27.75
2023-03-16T16:14:43.601Z,27.69
2023-03-16T16:16:48.411Z,27.77
2023-03-16T16:18:52.865Z,27.71
2023-03-16T16:20:57.555Z,27.75
2023-03-16T16:23:02.135Z,27.87
2023-03-16T16:25:06.648Z,27.77
2023-03-16T16:27:11.021Z,27.92
2023-03-16T16:29:15.451Z,27.82
2023-03-16T16:31:20.123Z,28.24
2023-03-16T16:33:24.551Z,28.25
2023-03-16T16:35:30.859Z,28.35
2023-03-16T16:37:35.430Z,28.42
2023-03-16T16:39:40.025Z,28.57
2023-03-16T16:41:44.513Z,28.7
2023-03-16T16:43:48.985Z,28.5
2023-03-16T16:45:53.796Z,28.64
2023-03-16T16:47:58.429Z,28.7
2023-03-16T16:50:03.299Z,28.7
2023-03-16T16:52:07.793Z,28.84
2023-03-16T16:54:12.363Z,28.83
2023-03-16T16:56:16.802Z,28.89
2023-03-16T16:58:26.872Z,28.91
2023-03-16T17:00:31.377Z,28.95
2023-03-16T17:02:41.964Z,28.97
2023-03-16T17:04:46.990Z,29.05
2023-03-16T17:06:51.528Z,29.09
2023-03-16T17:08:55.982Z,29.09
2023-03-16T17:11:00.421Z,29.17
2023-03-16T17:13:05.083Z,29.25
2023-03-16T17:15:09.631Z,29.28
2023-03-16T17:17:14.311Z,29.25
2023-03-16T17:19:18.762Z,29.29
2023-03-16T17:21:23.259Z,29.24
2023-03-16T17:23:27.659Z,29.4
2023-03-16T17:25:32.688Z,29.47
2023-03-16T17:27:37.074Z,29.45
2023-03-16T17:29:41.529Z,28.62
2023-03-16T17:31:45.961Z,29.42
2023-03-16T17:33:50.323Z,29.38
2023-03-16T17:35:55.055Z,29.35
2023-03-16T17:37:59.458Z,29.38
2023-03-16T17:40:04.211Z,29.38
2023-03-16T17:42:08.767Z,29.43
2023-03-16T17:44:13.278Z,29.42
2023-03-16T17:46:19.832Z,29.4
2023-03-16T17:48:24.279Z,29.41
2023-03-16T17:50:29.333Z,29.54
2023-03-16T17:52:33.955Z,29.61
2023-03-16T17:54:38.365Z,29.57
2023-03-16T17:56:42.849Z,29.47
2023-03-16T17:58:47.272Z,29.61
2023-03-16T18:00:51.710Z,29.44
2023-03-16T18:02:56.286Z,29.42
2023-03-16T18:05:00.674Z,29.55
2023-03-16T18:07:05.087Z,28.18
2023-03-16T18:09:09.524Z,28.93
2023-03-16T18:11:13.936Z,28.24
2023-03-16T18:13:18.346Z,28.43
2023-03-16T18:15:22.799Z,28
2023-03-16T18:17:27.282Z,27.71
2023-03-16T18:19:31.669Z,28.07
2023-03-16T18:21:36.100Z,28
2023-03-16T18:23:40.513Z,28.2
2023-03-16T18:25:45.011Z,28.11
2023-03-16T18:27:49.453Z,27.89
2023-03-16T18:29:53.898Z,27.94
2023-03-16T18:31:58.354Z,28
2023-03-16T18:34:02.871Z,28.38
2023-03-16T18:36:07.820Z,28.21
2023-03-16T18:38:12.363Z,28.76
2023-03-16T18:40:16.978Z,28.7
2023-03-16T18:42:21.669Z,28.62
2023-03-16T18:44:26.246Z,29.03
2023-03-16T18:46:30.997Z,28.91
2023-03-16T18:48:35.543Z,29.15
2023-03-16T18:50:39.966Z,29.49
2023-03-16T18:52:44.403Z,29.75
2023-03-16T18:54:48.809Z,30.79
2023-03-16T18:56:53.228Z,30.86
2023-03-16T18:58:57.692Z,31.33
2023-03-16T19:01:02.387Z,31.7
2023-03-16T19:03:06.824Z,31.62
2023-03-16T19:05:11.286Z,31.25
2023-03-16T19:07:15.745Z,31.17
2023-03-16T19:09:20.256Z,31.16
2023-03-16T19:11:24.714Z,31
2023-03-16T19:13:29.272Z,31.19
2023-03-16T19:15:34.645Z,31.27
2023-03-16T19:17:39.212Z,31.12
2023-03-16T19:19:43.591Z,31.37
2023-03-16T19:21:48.014Z,31.48
2023-03-16T19:23:52.413Z,31.61
2023-03-16T19:25:56.953Z,31.74
2023-03-16T19:28:01.459Z,31.75
2023-03-16T19:30:05.929Z,31.99
2023-03-16T19:32:10.644Z,32.01
2023-03-16T19:34:15.263Z,32.09
2023-03-16T19:36:19.937Z,32.33
2023-03-16T19:38:24.498Z,32.01
2023-03-16T19:40:29.061Z,32.25
2023-03-16T19:42:33.761Z,32.21
2023-03-16T19:44:38.292Z,32.33
2023-03-16T19:46:42.690Z,32.37
2023-03-16T19:48:47.117Z,32.46
2023-03-16T19:50:51.584Z,31.52
2023-03-16T19:52:56.067Z,29.3
2023-03-16T19:55:02.179Z,29.6
2023-03-16T19:57:06.737Z,29.1
2023-03-16T19:59:11.143Z,29.22
2023-03-16T20:01:15.884Z,29.58
2023-03-16T20:03:20.439Z,29.13
2023-03-16T20:05:24.855Z,29.79
2023-03-16T20:07:29.399Z,29.86
2023-03-16T20:09:33.842Z,30.02
2023-03-16T20:11:39.085Z,28.22
2023-03-16T20:13:43.596Z,27.12
2023-03-16T20:15:48.010Z,24.68
2023-03-16T20:17:54.145Z,24.44
2023-03-16T20:19:58.737Z,24.3
2023-03-16T20:22:04.864Z,23.23
2023-03-16T20:24:09.355Z,22.82
2023-03-16T20:26:13.878Z,22.91
2023-03-16T20:28:18.299Z,22.92
2023-03-16T20:30:22.756Z,22.22
2023-03-16T20:32:27.370Z,22.14
2023-03-16T20:34:31.981Z,23.78
2023-03-16T20:36:36.405Z,21.99
2023-03-16T20:38:40.832Z,21.74
2023-03-16T20:40:45.251Z,21.64
2023-03-16T20:42:49.731Z,21.29
2023-03-16T20:44:54.415Z,20.97
2023-03-16T20:46:58.860Z,21.05
2023-03-16T20:49:03.439Z,21.15
2023-03-16T20:51:07.873Z,21.5
2023-03-16T20:53:12.272Z,21.1
2023-03-16T20:55:16.864Z,21.04
2023-03-16T20:57:21.374Z,20.82
2023-03-16T20:59:26.015Z,20.86
2023-03-16T21:01:30.723Z,20.67
2023-03-16T21:03:35.260Z,20.52
2023-03-16T21:05:39.696Z,20.58
2023-03-16T21:07:44.143Z,20.66
2023-03-16T21:09:52.353Z,20.24
2023-03-16T21:11:56.773Z,20.47
2023-03-16T21:14:01.183Z,20.24
2023-03-16T21:16:05.833Z,20.08
2023-03-16T21:18:10.335Z,20.24
2023-03-16T21:20:15.059Z,20.06
2023-03-16T21:22:19.502Z,20.91
2023-03-16T21:24:23.974Z,20.98
2023-03-16T21:26:28.389Z,20.68
2023-03-16T21:28:32.870Z,21.02
2023-03-16T21:30:37.299Z,20.36
2023-03-16T21:32:41.863Z,20.44
2023-03-16T21:34:46.517Z,20.84
2023-03-16T21:36:50.987Z,20.08
2023-03-16T21:38:55.464Z,20.05
2023-03-16T21:40:59.953Z,19.97
2023-03-16T21:43:04.436Z,20.53
2023-03-16T21:45:08.854Z,19.86
2023-03-16T21:47:13.374Z,20.23
2023-03-16T21:49:18.191Z,20.54
2023-03-16T21:51:22.655Z,19.87
2023-03-16T21:53:27.025Z,20.2
2023-03-16T21:55:32.220Z,21.02
2023-03-16T21:57:36.887Z,21.05
2023-03-16T21:59:41.329Z,21.1
2023-03-16T22:02:03.630Z,20.89
2023-03-16T22:04:08.076Z,20.38
2023-03-16T22:06:14.678Z,20.57
2023-03-16T22:08:19.081Z,20.38
2023-03-16T22:10:23.525Z,20.28
2023-03-16T22:12:27.956Z,20.39
2023-03-16T22:14:32.395Z,20.52
2023-03-16T22:16:37.183Z,20.38
2023-03-16T22:18:41.639Z,20.29
2023-03-16T22:20:46.046Z,20.35
2023-03-16T22:22:50.519Z,20.03
2023-03-16T22:24:54.976Z,20.23
2023-03-16T22:26:59.385Z,20.28
2023-03-16T22:29:03.971Z,20.36
2023-03-16T22:31:08.499Z,20.25
2023-03-16T22:33:12.986Z,20.29
2023-03-16T22:35:17.415Z,20.4
2023-03-16T22:37:22.039Z,20.02
2023-03-16T22:39:26.450Z,20.1
2023-03-16T22:41:30.873Z,20.13
2023-03-16T22:43:35.263Z,20.12
2023-03-16T22:45:39.880Z,20.32
2023-03-16T22:47:44.359Z,20.57
